Lauderdale, Minnesota
Current Conditions -  °F | °C
As of 11:53 AM on Sunday 25 Jan 2015 (Local Time) from KSTP Reporting Station
Broken Clouds Broken Clouds  
Wind Chill: 12°   Ceiling: 11000
Heat Index: 22°   Visibility: 10mi
Dew Point: 11°   Wind: 9mph
Humidity: 63%   Direction: 80°E
Pressure: 30.05"   Gusts: NA
Location:  45.0123°N, 93.1559°W
Report Text: KSTP 251753Z 08008KT 10SM SCT023 BKN110 M06/M12 A3005 RMK AO2 SLP185 T10561117 11039 21067 50020
Loading
Personal Weather Stations






























Interactive Weather Map New forecast layout! Learn more

10-Day Weather Forecast

Advertisements
Track Severe Weather on mobile